createdAt,value
2022-11-05T00:01:24.678Z,6.01
2022-11-05T00:03:51.144Z,5.81
2022-11-05T00:06:17.552Z,5.51
2022-11-05T00:08:44.036Z,5.77
2022-11-05T00:11:17.698Z,5.74
2022-11-05T00:13:44.685Z,5.58
2022-11-05T00:16:11.107Z,5.11
2022-11-05T00:18:37.626Z,5.67
2022-11-05T00:21:04.599Z,5.71
2022-11-05T00:23:31.028Z,5.72
2022-11-05T00:26:02.865Z,5.70
2022-11-05T00:28:30.711Z,5.74
2022-11-05T00:31:04.644Z,5.35
2022-11-05T00:33:31.939Z,5.22
2022-11-05T00:35:58.914Z,5.50
2022-11-05T00:38:25.309Z,4.94
2022-11-05T00:40:51.728Z,5.02
2022-11-05T00:43:18.162Z,5.32
2022-11-05T00:45:44.703Z,5.32
2022-11-05T00:48:11.121Z,5.26
2022-11-05T00:50:37.496Z,5.14
2022-11-05T00:53:04.008Z,5.33
2022-11-05T00:55:41.573Z,5.02
2022-11-05T00:58:14.316Z,5.27
2022-11-05T01:00:43.635Z,5.03
2022-11-05T01:03:14.166Z,5.27
2022-11-05T01:05:46.418Z,5.34
2022-11-05T01:08:15.157Z,5.39
2022-11-05T01:10:43.485Z,4.84
2022-11-05T01:13:13.163Z,4.86
2022-11-05T01:15:39.943Z,5.15
2022-11-05T01:18:06.743Z,5.13
2022-11-05T01:20:33.199Z,4.65
2022-11-05T01:22:59.613Z,4.40
2022-11-05T01:25:25.972Z,4.66
2022-11-05T01:27:52.426Z,4.73
2022-11-05T01:30:19.016Z,4.96
2022-11-05T01:32:45.410Z,4.62
2022-11-05T01:35:14.969Z,5.03
2022-11-05T01:37:42.080Z,4.66
2022-11-05T01:40:12.702Z,4.36
2022-11-05T01:42:39.153Z,4.90
2022-11-05T01:45:20.944Z,4.96
2022-11-05T01:48:14.117Z,4.99
2022-11-05T01:50:42.443Z,4.98
2022-11-05T01:53:14.886Z,4.97
2022-11-05T01:55:47.341Z,4.99
2022-11-05T01:58:21.325Z,4.47
2022-11-05T02:00:48.355Z,5.00
2022-11-05T02:03:17.299Z,4.97
2022-11-05T02:05:45.155Z,4.48
2022-11-05T02:08:20.286Z,4.79
2022-11-05T02:10:47.342Z,4.88
2022-11-05T02:13:13.850Z,4.83
2022-11-05T02:16:02.949Z,4.39
2022-11-05T02:18:40.658Z,4.32
2022-11-05T02:21:43.179Z,4.79
2022-11-05T02:24:27.644Z,4.56
2022-11-05T02:27:40.475Z,4.76
2022-11-05T02:30:27.155Z,4.79
2022-11-05T02:33:15.605Z,4.75
2022-11-05T02:35:55.269Z,4.89
2022-11-05T02:38:36.693Z,4.99
2022-11-05T02:41:08.790Z,4.98
2022-11-05T02:43:59.795Z,5.04
2022-11-05T02:46:51.164Z,4.95
2022-11-05T02:49:26.904Z,4.74
2022-11-05T02:51:59.175Z,4.89
2022-11-05T02:54:32.419Z,5.06
2022-11-05T02:57:00.844Z,5.08
2022-11-05T02:59:27.179Z,5.13
2022-11-05T03:01:54.417Z,4.96
2022-11-05T03:04:23.532Z,4.72
2022-11-05T03:07:05.377Z,5.02
2022-11-05T03:09:43.694Z,5.12
2022-11-05T03:12:41.300Z,5.31
2022-11-05T03:15:15.349Z,5.38
2022-11-05T03:18:10.822Z,5.44
2022-11-05T03:20:43.980Z,5.54
2022-11-05T03:23:31.718Z,5.27
2022-11-05T03:26:20.063Z,5.06
2022-11-05T03:28:53.068Z,4.91
2022-11-05T03:31:20.856Z,5.34
2022-11-05T03:33:50.503Z,5.40
2022-11-05T03:36:23.296Z,5.19
2022-11-05T03:38:52.817Z,5.45
2022-11-05T03:41:21.505Z,5.40
2022-11-05T03:43:52.042Z,4.89
2022-11-05T03:46:23.179Z,5.00
2022-11-05T03:48:54.277Z,4.98
2022-11-05T03:51:35.983Z,5.07
2022-11-05T03:54:04.454Z,5.33
2022-11-05T03:57:01.121Z,5.43
2022-11-05T03:59:29.595Z,5.01
2022-11-05T04:01:56.846Z,5.41
2022-11-05T04:04:23.488Z,5.38
2022-11-05T04:06:49.921Z,5.37
2022-11-05T04:09:16.454Z,5.27
2022-11-05T04:11:42.872Z,5.32
2022-11-05T04:14:09.282Z,5.02
2022-11-05T04:16:35.643Z,5.50
2022-11-05T04:19:02.129Z,5.26
2022-11-05T04:21:28.512Z,5.51
2022-11-05T04:23:55.836Z,5.23
2022-11-05T04:26:22.299Z,5.57
2022-11-05T04:28:52.304Z,5.73
2022-11-05T04:31:18.686Z,5.63
2022-11-05T04:33:45.029Z,5.58
2022-11-05T04:36:11.467Z,5.62
2022-11-05T04:38:37.827Z,5.72
2022-11-05T04:41:17.260Z,5.72
2022-11-05T04:43:44.322Z,5.59
2022-11-05T04:46:10.997Z,5.56
2022-11-05T04:48:37.711Z,5.52
2022-11-05T04:51:04.739Z,5.58
2022-11-05T04:53:31.706Z,5.54
2022-11-05T04:56:20.906Z,5.14
2022-11-05T04:58:47.669Z,5.51
2022-11-05T05:01:19.152Z,5.44
2022-11-05T05:03:52.928Z,4.93
2022-11-05T05:06:20.052Z,5.41
2022-11-05T05:08:48.011Z,4.85
2022-11-05T05:11:16.888Z,5.22
2022-11-05T05:13:43.359Z,5.24
2022-11-05T05:16:18.679Z,5.03
2022-11-05T05:18:46.458Z,5.18
2022-11-05T05:21:14.049Z,5.16
2022-11-05T05:23:40.600Z,4.81
2022-11-05T05:26:07.008Z,5.05
2022-11-05T05:28:33.565Z,5.17
2022-11-05T05:31:00.698Z,4.72
2022-11-05T05:33:27.967Z,4.98
2022-11-05T05:35:57.431Z,5.18
2022-11-05T05:38:23.900Z,5.16
2022-11-05T05:40:51.005Z,4.68
2022-11-05T05:43:17.842Z,5.17
2022-11-05T05:45:44.660Z,5.10
2022-11-05T05:48:11.032Z,4.98
2022-11-05T05:50:37.479Z,5.19
2022-11-05T05:53:03.852Z,5.21
2022-11-05T05:55:30.291Z,4.65
2022-11-05T05:57:56.691Z,4.68
2022-11-05T06:00:23.094Z,5.09
2022-11-05T06:02:49.563Z,5.12
2022-11-05T06:05:16.127Z,4.68
2022-11-05T06:07:42.495Z,4.80
2022-11-05T06:10:09.211Z,5.18
2022-11-05T06:12:35.594Z,4.77
2022-11-05T06:15:02.357Z,5.16
2022-11-05T06:17:28.813Z,5.09
2022-11-05T06:19:55.205Z,4.49
2022-11-05T06:22:21.582Z,5.09
2022-11-05T06:24:47.946Z,5.09
2022-11-05T06:27:14.355Z,4.97
2022-11-05T06:29:40.755Z,4.72
2022-11-05T06:32:07.149Z,5.06
2022-11-05T06:34:33.575Z,5.07
2022-11-05T06:37:00.030Z,4.97
2022-11-05T06:39:26.440Z,4.43
2022-11-05T06:44:39.236Z,5.02
2022-11-05T06:47:05.657Z,4.95
2022-11-05T06:49:32.092Z,4.54
2022-11-05T06:51:58.546Z,5.03
2022-11-05T06:54:25.008Z,4.99
2022-11-05T06:56:51.439Z,4.98
2022-11-05T06:59:17.974Z,4.84
2022-11-05T07:01:44.507Z,4.94
2022-11-05T07:04:12.223Z,4.85
2022-11-05T07:06:38.691Z,4.88
2022-11-05T07:09:05.068Z,4.60
2022-11-05T07:11:31.466Z,4.91
2022-11-05T07:13:57.938Z,4.96
2022-11-05T07:16:24.334Z,4.92
2022-11-05T07:18:50.724Z,5.00
2022-11-05T07:21:17.215Z,5.02
2022-11-05T07:23:43.678Z,5.10
2022-11-05T07:26:10.107Z,4.63
2022-11-05T07:28:36.514Z,4.47
2022-11-05T07:31:02.910Z,5.11
2022-11-05T07:33:35.263Z,4.75
2022-11-05T07:36:02.919Z,5.21
2022-11-05T07:38:29.400Z,5.22
2022-11-05T07:40:55.833Z,5.01
2022-11-05T07:43:22.273Z,5.27
2022-11-05T07:45:48.737Z,5.30
2022-11-05T07:48:15.178Z,5.35
2022-11-05T07:50:41.608Z,5.34
2022-11-05T07:53:11.964Z,5.18
2022-11-05T07:55:40.702Z,5.49
2022-11-05T07:58:07.466Z,5.34
2022-11-05T08:00:34.040Z,5.59
2022-11-05T08:03:15.266Z,5.71
2022-11-05T08:05:44.272Z,5.23
2022-11-05T08:08:12.908Z,5.76
2022-11-05T08:10:39.471Z,5.81
2022-11-05T08:13:06.838Z,5.46
2022-11-05T08:15:34.389Z,5.50
2022-11-05T08:18:10.366Z,5.97
2022-11-05T08:20:37.358Z,6.15
2022-11-05T08:23:04.301Z,6.18
2022-11-05T08:25:31.299Z,6.11
2022-11-05T08:27:58.527Z,6.40
2022-11-05T08:30:25.659Z,5.88
2022-11-05T08:32:56.987Z,6.44
2022-11-05T08:35:23.419Z,6.25
2022-11-05T08:37:49.854Z,6.88
2022-11-05T08:40:16.313Z,6.70
2022-11-05T08:42:42.717Z,7.35
2022-11-05T08:45:09.708Z,7.26
2022-11-05T08:47:36.103Z,7.75
2022-11-05T08:50:02.597Z,7.66
2022-11-05T08:52:29.090Z,7.44
2022-11-05T08:54:55.538Z,8.06
2022-11-05T08:57:21.913Z,8.20
2022-11-05T08:59:48.293Z,8.22
2022-11-05T09:02:14.795Z,8.22
2022-11-05T09:04:41.343Z,7.84
2022-11-05T09:07:07.816Z,8.44
2022-11-05T09:09:34.216Z,8.38
2022-11-05T09:12:15.889Z,8.38
2022-11-05T09:14:42.312Z,8.45
2022-11-05T09:17:20.116Z,8.61
2022-11-05T09:19:46.670Z,8.21
2022-11-05T09:22:13.820Z,8.51
2022-11-05T09:24:41.494Z,8.55
2022-11-05T09:27:10.220Z,8.56
2022-11-05T09:29:36.892Z,8.31
2022-11-05T09:32:03.452Z,8.58
2022-11-05T09:34:29.870Z,8.63
2022-11-05T09:36:57.529Z,8.72
2022-11-05T09:39:24.123Z,8.75
2022-11-05T09:41:52.986Z,8.99
2022-11-05T09:44:35.668Z,8.81
2022-11-05T09:47:07.421Z,8.62
2022-11-05T09:49:45.663Z,8.45
2022-11-05T09:52:15.184Z,9.05
2022-11-05T09:54:41.713Z,9.22
2022-11-05T09:57:15.745Z,9.17
2022-11-05T09:59:46.699Z,8.79
2022-11-05T10:02:25.364Z,9.11
2022-11-05T10:04:55.715Z,9.16
2022-11-05T10:07:26.999Z,9.39
2022-11-05T10:10:07.672Z,9.24
2022-11-05T10:12:40.832Z,9.37
2022-11-05T10:15:07.446Z,9.30
2022-11-05T10:17:39.325Z,9.01
2022-11-05T10:20:35.200Z,9.40
2022-11-05T10:23:22.258Z,9.32
2022-11-05T10:25:54.750Z,9.28
2022-11-05T10:28:24.886Z,9.59
2022-11-05T10:31:16.099Z,9.59
2022-11-05T10:34:03.983Z,9.12
2022-11-05T10:36:33.856Z,9.68
2022-11-05T10:39:15.456Z,9.86
2022-11-05T10:41:59.393Z,10.10
2022-11-05T10:44:35.181Z,10.12
2022-11-05T10:47:09.190Z,10.06
2022-11-05T10:49:56.625Z,9.80
2022-11-05T10:52:35.624Z,10.01
2022-11-05T10:55:07.327Z,9.86
2022-11-05T10:57:39.169Z,10.35
2022-11-05T11:00:14.768Z,10.40
2022-11-05T11:02:46.347Z,10.40
2022-11-05T11:05:27.733Z,10.25
2022-11-05T11:08:24.178Z,10.15
2022-11-05T11:10:54.653Z,10.21
2022-11-05T11:13:27.667Z,10.45
2022-11-05T11:15:54.719Z,10.53
2022-11-05T11:18:24.111Z,10.34
2022-11-05T11:20:50.643Z,10.51
2022-11-05T11:23:17.939Z,9.93
2022-11-05T11:25:59.989Z,9.82
2022-11-05T11:28:32.834Z,10.00
2022-11-05T11:31:07.757Z,10.39
2022-11-05T11:33:35.901Z,10.51
2022-11-05T11:36:02.653Z,10.72
2022-11-05T11:38:35.477Z,10.69
2022-11-05T11:41:11.458Z,10.61
2022-11-05T11:43:41.364Z,10.77
2022-11-05T11:46:18.204Z,10.80
2022-11-05T11:48:46.868Z,10.74
2022-11-05T11:51:30.420Z,10.73
2022-11-05T11:53:59.157Z,11.02
2022-11-05T11:56:25.892Z,10.59
2022-11-05T11:58:54.765Z,10.65
2022-11-05T12:01:49.507Z,10.93
2022-11-05T12:04:26.137Z,10.56
2022-11-05T12:07:19.710Z,10.96
2022-11-05T12:10:07.811Z,10.91
2022-11-05T12:12:40.299Z,10.86
2022-11-05T12:15:27.659Z,10.56
2022-11-05T12:17:56.933Z,10.84
2022-11-05T12:20:48.175Z,10.30
2022-11-05T12:23:26.923Z,10.83
2022-11-05T12:26:02.107Z,10.73
2022-11-05T12:29:16.778Z,10.77
2022-11-05T12:31:52.340Z,10.75
2022-11-05T12:34:33.942Z,10.84
2022-11-05T12:37:12.323Z,10.77
2022-11-05T12:39:48.096Z,10.89
2022-11-05T12:42:23.785Z,10.95
2022-11-05T12:45:14.689Z,10.84
2022-11-05T12:48:21.955Z,10.68
2022-11-05T12:51:32.581Z,10.74
2022-11-05T12:54:16.890Z,10.81
2022-11-05T12:56:49.873Z,10.55
2022-11-05T12:59:34.443Z,10.76
2022-11-05T13:02:13.743Z,10.76
2022-11-05T13:04:48.577Z,10.57
2022-11-05T13:07:22.391Z,10.48
2022-11-05T13:10:20.885Z,11.13
2022-11-05T13:12:57.871Z,10.72
2022-11-05T13:15:51.250Z,10.90
2022-11-05T13:18:25.619Z,10.87
2022-11-05T13:20:54.435Z,10.97
2022-11-05T13:23:25.235Z,10.65
2022-11-05T13:25:59.952Z,10.88
2022-11-05T13:29:11.104Z,10.97
2022-11-05T13:31:48.034Z,10.85
2022-11-05T13:34:14.412Z,10.73
2022-11-05T13:36:52.930Z,10.41
2022-11-05T13:39:24.742Z,10.77
2022-11-05T13:41:54.018Z,10.79
2022-11-05T13:45:03.934Z,10.91
2022-11-05T13:47:55.820Z,10.63
2022-11-05T13:50:30.879Z,11.13
2022-11-05T13:53:17.521Z,11.24
2022-11-05T13:55:53.052Z,11.02
2022-11-05T13:58:44.290Z,11.07
2022-11-05T14:01:47.794Z,10.91
2022-11-05T14:04:20.231Z,10.92
2022-11-05T14:06:46.977Z,10.87
2022-11-05T14:09:20.099Z,10.59
2022-11-05T14:11:53.719Z,10.25
2022-11-05T14:14:25.272Z,10.44
2022-11-05T14:17:12.818Z,10.87
2022-11-05T14:20:02.235Z,10.58
2022-11-05T14:22:36.812Z,10.82
2022-11-05T14:25:18.135Z,10.73
2022-11-05T14:27:47.611Z,10.73
2022-11-05T14:30:43.754Z,10.71
2022-11-05T14:33:37.398Z,10.40
2022-11-05T14:36:43.072Z,10.68
2022-11-05T14:39:21.895Z,10.63
2022-11-05T14:42:10.174Z,10.59
2022-11-05T14:44:36.982Z,10.23
2022-11-05T14:47:07.765Z,10.55
2022-11-05T14:49:49.090Z,10.55
2022-11-05T14:52:18.700Z,10.32
2022-11-05T14:54:50.537Z,10.41
2022-11-05T14:57:42.483Z,10.57
2022-11-05T15:00:30.410Z,10.54
2022-11-05T15:03:19.965Z,10.48
2022-11-05T15:06:34.909Z,10.15
2022-11-05T15:09:16.686Z,10.35
2022-11-05T15:11:56.842Z,9.91
2022-11-05T15:14:39.280Z,10.38
2022-11-05T15:17:17.552Z,10.35
2022-11-05T15:19:45.595Z,10.31
2022-11-05T15:22:28.837Z,10.30
2022-11-05T15:24:55.831Z,10.32
2022-11-05T15:27:57.419Z,10.27
2022-11-05T15:30:24.431Z,9.98
2022-11-05T15:32:51.834Z,10.17
2022-11-05T15:35:27.321Z,10.22
2022-11-05T15:38:01.761Z,10.19
2022-11-05T15:40:32.714Z,10.12
2022-11-05T15:43:09.957Z,10.15
2022-11-05T15:45:36.651Z,10.00
2022-11-05T15:48:12.744Z,9.92
2022-11-05T15:50:39.336Z,9.78
2022-11-05T15:53:44.290Z,9.98
2022-11-05T15:56:12.590Z,9.58
2022-11-05T15:58:47.808Z,9.96
2022-11-05T16:01:24.835Z,9.81
2022-11-05T16:03:58.811Z,9.50
2022-11-05T16:06:42.435Z,9.72
2022-11-05T16:09:19.952Z,9.41
2022-11-05T16:11:46.407Z,9.75
2022-11-05T16:14:19.318Z,9.64
2022-11-05T16:16:46.407Z,9.59
2022-11-05T16:19:40.184Z,9.82
2022-11-05T16:22:07.960Z,9.41
2022-11-05T16:24:34.408Z,9.51
2022-11-05T16:27:02.932Z,9.28
2022-11-05T16:29:34.608Z,9.78
2022-11-05T16:32:05.450Z,9.54
2022-11-05T16:34:57.578Z,9.75
2022-11-05T16:37:26.163Z,9.09
2022-11-05T16:39:53.229Z,9.82
2022-11-05T16:42:22.807Z,9.76
2022-11-05T16:44:50.456Z,9.76
2022-11-05T16:47:17.945Z,9.71
2022-11-05T16:49:44.478Z,9.76
2022-11-05T16:52:13.065Z,9.71
2022-11-05T16:54:39.890Z,9.46
2022-11-05T16:57:25.090Z,9.37
2022-11-05T16:59:51.514Z,9.35
2022-11-05T17:02:18.016Z,9.70
2022-11-05T17:04:44.627Z,9.35
2022-11-05T17:07:11.072Z,9.58
2022-11-05T17:09:37.486Z,9.68
2022-11-05T17:12:04.063Z,9.60
2022-11-05T17:14:30.465Z,9.68
2022-11-05T17:17:00.075Z,9.36
2022-11-05T17:19:26.715Z,9.60
2022-11-05T17:21:53.203Z,9.68
2022-11-05T17:24:19.644Z,9.33
2022-11-05T17:26:46.099Z,9.58
2022-11-05T17:29:12.622Z,9.41
2022-11-05T17:31:40.228Z,9.75
2022-11-05T17:34:06.768Z,9.28
2022-11-05T17:36:33.161Z,9.74
2022-11-05T17:38:59.544Z,9.77
2022-11-05T17:41:25.954Z,9.80
2022-11-05T17:43:56.817Z,9.85
2022-11-05T17:46:23.982Z,9.81
2022-11-05T17:48:50.431Z,9.69
2022-11-05T17:51:18.784Z,9.79
2022-11-05T17:53:46.377Z,9.79
2022-11-05T17:56:16.662Z,9.75
2022-11-05T17:58:46.841Z,9.38
2022-11-05T18:01:39.464Z,9.86
2022-11-05T18:04:08.930Z,9.55
2022-11-05T18:06:39.842Z,9.79
2022-11-05T18:09:07.806Z,9.52
2022-11-05T18:11:35.442Z,9.74
2022-11-05T18:14:02.137Z,9.86
2022-11-05T18:16:28.556Z,9.79
2022-11-05T18:18:54.983Z,9.78
2022-11-05T18:21:21.439Z,9.82
2022-11-05T18:23:47.816Z,9.78
2022-11-05T18:26:16.106Z,9.42
2022-11-05T18:28:43.566Z,9.77
2022-11-05T18:31:28.353Z,9.79
2022-11-05T18:33:58.053Z,9.80
2022-11-05T18:36:30.818Z,9.76
2022-11-05T18:38:58.645Z,9.81
2022-11-05T18:41:25.757Z,9.70
2022-11-05T18:43:52.169Z,9.74
2022-11-05T18:46:43.263Z,9.70
2022-11-05T18:49:05.327Z,9.22
2022-11-05T18:51:31.924Z,9.68
2022-11-05T18:53:58.612Z,9.61
2022-11-05T18:56:25.000Z,9.63
2022-11-05T18:59:14.632Z,9.26
2022-11-05T19:01:40.394Z,9.54
2022-11-05T19:04:06.969Z,9.13
2022-11-05T19:06:34.021Z,9.55
2022-11-05T19:09:00.434Z,9.52
2022-11-05T19:11:27.181Z,9.21
2022-11-05T19:13:53.873Z,9.04
2022-11-05T19:16:23.851Z,9.40
2022-11-05T19:18:50.512Z,9.33
2022-11-05T19:21:23.015Z,9.12
2022-11-05T19:23:49.821Z,9.48
2022-11-05T19:26:24.144Z,9.05
2022-11-05T19:28:53.789Z,9.46
2022-11-05T19:31:23.175Z,9.56
2022-11-05T19:33:51.181Z,9.08
2022-11-05T19:36:18.845Z,9.03
2022-11-05T19:38:45.189Z,9.43
2022-11-05T19:41:14.286Z,9.36
2022-11-05T19:43:42.211Z,9.12
2022-11-05T19:46:14.637Z,9.39
2022-11-05T19:48:41.414Z,9.33
2022-11-05T19:51:14.047Z,9.33
2022-11-05T19:53:40.491Z,8.77
2022-11-05T19:56:07.566Z,9.21
2022-11-05T19:58:34.511Z,9.19
2022-11-05T20:01:01.435Z,9.18
2022-11-05T20:03:28.263Z,9.08
2022-11-05T20:05:55.135Z,8.72
2022-11-05T20:08:21.530Z,9.05
2022-11-05T20:10:53.679Z,8.73
2022-11-05T20:13:20.216Z,8.73
2022-11-05T20:15:47.007Z,9.00
2022-11-05T20:18:14.068Z,9.08
2022-11-05T20:20:40.691Z,9.01
2022-11-05T20:23:07.050Z,9.05
2022-11-05T20:25:33.440Z,9.08
2022-11-05T20:27:59.969Z,9.14
2022-11-05T20:30:26.553Z,8.96
2022-11-05T20:32:54.561Z,8.72
2022-11-05T20:35:22.125Z,9.11
2022-11-05T20:37:53.733Z,8.85
2022-11-05T20:40:20.703Z,9.07
2022-11-05T20:42:47.069Z,8.95
2022-11-05T20:45:13.491Z,8.93
2022-11-05T20:47:39.912Z,8.98
2022-11-05T20:50:07.155Z,8.94
2022-11-05T20:52:33.684Z,8.99
2022-11-05T20:55:00.114Z,8.95
2022-11-05T20:57:26.537Z,9.06
2022-11-05T20:59:53.040Z,8.64
2022-11-05T21:02:19.560Z,9.14
2022-11-05T21:04:46.080Z,8.71
2022-11-05T21:07:12.455Z,9.04
2022-11-05T21:09:38.862Z,8.90
2022-11-05T21:12:05.503Z,8.91
2022-11-05T21:14:31.925Z,8.51
2022-11-05T21:16:58.359Z,9.06
2022-11-05T21:19:24.792Z,9.17
2022-11-05T21:21:51.207Z,9.15
2022-11-05T21:24:17.615Z,9.13
2022-11-05T21:26:44.048Z,8.92
2022-11-05T21:29:10.475Z,9.21
2022-11-05T21:31:37.171Z,9.09
2022-11-05T21:34:04.034Z,8.89
2022-11-05T21:36:30.437Z,9.17
2022-11-05T21:38:56.822Z,9.36
2022-11-05T21:41:23.259Z,9.33
2022-11-05T21:43:49.648Z,8.93
2022-11-05T21:46:16.048Z,8.96
2022-11-05T21:48:42.717Z,9.40
2022-11-05T21:51:12.043Z,9.20
2022-11-05T21:53:39.204Z,9.24
2022-11-05T21:56:07.847Z,9.45
2022-11-05T21:58:34.329Z,8.98
2022-11-05T22:01:01.670Z,9.38
2022-11-05T22:03:28.654Z,9.41
2022-11-05T22:05:57.252Z,9.40
2022-11-05T22:08:23.659Z,9.32
2022-11-05T22:10:50.049Z,9.51
2022-11-05T22:13:16.439Z,9.47
2022-11-05T22:15:42.848Z,9.49
2022-11-05T22:18:09.391Z,9.42
2022-11-05T22:20:38.062Z,9.34
2022-11-05T22:23:10.016Z,9.37
2022-11-05T22:25:37.583Z,9.35
2022-11-05T22:28:04.231Z,9.28
2022-11-05T22:30:34.203Z,9.35
2022-11-05T22:33:00.911Z,9.22
2022-11-05T22:35:27.334Z,9.32
2022-11-05T22:37:53.690Z,9.47
2022-11-05T22:40:23.832Z,9.48
2022-11-05T22:42:50.710Z,9.50
2022-11-05T22:45:17.267Z,9.07
2022-11-05T22:47:43.784Z,9.14
2022-11-05T22:50:10.342Z,8.80
2022-11-05T22:52:36.789Z,8.98
2022-11-05T22:55:03.784Z,9.41
2022-11-05T22:57:30.272Z,9.44
2022-11-05T22:59:56.652Z,9.52
2022-11-05T23:02:23.195Z,9.47
2022-11-05T23:04:51.623Z,9.45
2022-11-05T23:07:20.951Z,9.49
2022-11-05T23:09:51.063Z,9.08
2022-11-05T23:12:30.964Z,9.41
2022-11-05T23:14:59.166Z,9.36
2022-11-05T23:17:27.172Z,8.89
2022-11-05T23:19:53.590Z,9.28
2022-11-05T23:22:23.939Z,9.27
2022-11-05T23:24:50.587Z,9.31
2022-11-05T23:27:17.063Z,9.22
2022-11-05T23:29:43.497Z,8.82
2022-11-05T23:32:09.884Z,9.15
2022-11-05T23:34:36.512Z,8.95
2022-11-05T23:37:03.765Z,9.34
2022-11-05T23:39:30.188Z,9.36
2022-11-05T23:41:56.629Z,9.22
2022-11-05T23:44:23.053Z,8.86
2022-11-05T23:46:49.461Z,9.33
2022-11-05T23:49:15.894Z,8.92
2022-11-05T23:51:42.391Z,9.31
2022-11-05T23:54:08.888Z,9.35
2022-11-05T23:56:35.344Z,9.37
2022-11-05T23:59:01.866Z,9.38
